Time;durP1;ratioP1;P1;durP2;ratioP2;P2;SDS_P1;SDS_P2;PMS_P1;PMS_P2;Temp;Humidity;BMP_temperature;BMP_pressure;BME280_temperature;BME280_humidity;BME280_pressure;Samples;Min_cycle;Max_cycle;Signal;HPM_P1;HPM_P2
2021/12/31 00:01:16;;;;;;;34.63;20.90;;;;;;;3.57;100.00;97375.41;4956033;28;20446;-38
2021/12/31 00:03:44;;;;;;;37.87;23.27;;;;;;;3.56;100.00;97371.16;4955625;28;20504;-39
2021/12/31 00:06:11;;;;;;;31.00;18.37;;;;;;;3.58;100.00;97374.41;4955609;28;20473;-39
2021/12/31 00:08:38;;;;;;;25.83;16.50;;;;;;;3.57;100.00;97372.78;4955586;28;20460;-38
2021/12/31 00:11:05;;;;;;;28.50;16.70;;;;;;;3.59;100.00;97378.69;4955537;28;20445;-38
2021/12/31 00:13:32;;;;;;;26.83;15.17;;;;;;;3.59;100.00;97368.19;4955860;28;20496;-38
2021/12/31 00:16:00;;;;;;;28.40;15.57;;;;;;;3.60;100.00;97354.03;4955519;28;20449;-37
2021/12/31 00:18:28;;;;;;;30.20;16.00;;;;;;;3.60;100.00;97359.28;4955475;28;20453;-38
2021/12/31 00:20:56;;;;;;;33.73;16.00;;;;;;;3.60;100.00;97364.53;4955443;28;20816;-38
2021/12/31 00:23:26;;;;;;;29.17;16.67;;;;;;;3.51;100.00;97344.63;4955668;28;20500;-38
2021/12/31 00:25:54;;;;;;;24.17;15.17;;;;;;;3.57;100.00;97351.78;4955677;28;20454;-38
2021/12/31 00:28:22;;;;;;;22.73;13.70;;;;;;;3.55;100.00;97345.06;4955312;28;20492;-39
2021/12/31 00:30:53;;;;;;;21.30;14.93;;;;;;;3.56;100.00;97346.69;4955741;28;20528;-38
2021/12/31 00:33:21;;;;;;;28.60;15.53;;;;;;;3.39;100.00;97309.28;4955410;28;20510;-39
2021/12/31 00:35:50;;;;;;;26.60;16.37;;;;;;;3.59;100.00;97338.47;4955652;28;20516;-38
2021/12/31 00:38:17;;;;;;;24.17;13.43;;;;;;;3.59;100.00;97336.66;4955319;28;20449;-38
2021/12/31 00:40:45;;;;;;;33.23;15.03;;;;;;;3.59;100.00;97336.66;4954968;28;20453;-38
2021/12/31 00:43:12;;;;;;;33.50;15.60;;;;;;;3.59;100.00;97341.91;4955437;28;20497;-39
2021/12/31 00:45:41;;;;;;;30.30;16.67;;;;;;;3.58;100.00;97334.22;4955491;28;20475;-38
2021/12/31 00:48:10;;;;;;;28.53;15.40;;;;;;;3.58;100.00;97329.78;4957789;28;20493;-38
2021/12/31 00:50:37;;;;;;;24.20;14.33;;;;;;;3.56;100.00;97323.88;4959106;28;20446;-37
2021/12/31 00:53:07;;;;;;;35.00;18.07;;;;;;;3.57;100.00;97322.06;4958978;28;20477;-39
2021/12/31 00:55:35;;;;;;;32.83;13.13;;;;;;;3.54;100.00;97320.63;4959084;28;20825;-38
2021/12/31 00:58:02;;;;;;;21.33;9.70;;;;;;;3.44;100.00;97302.50;4958223;28;20450;-37
2021/12/31 01:00:29;;;;;;;19.17;9.40;;;;;;;3.41;100.00;97296.78;4958976;28;20448;-37
2021/12/31 01:02:57;;;;;;;19.83;11.90;;;;;;;3.41;100.00;97292.34;4958851;28;20496;-38
2021/12/31 01:05:24;;;;;;;23.67;13.60;;;;;;;3.42;100.00;97287.91;4959203;28;20786;-39
2021/12/31 01:07:51;;;;;;;35.53;16.60;;;;;;;3.42;100.00;97287.91;4959152;28;20531;-39
2021/12/31 01:10:23;;;;;;;42.17;19.03;;;;;;;3.24;100.00;97260.19;4959645;28;20445;-38
2021/12/31 01:12:51;;;;;;;41.13;17.93;;;;;;;3.39;100.00;97272.53;4958666;28;20441;-38
2021/12/31 01:15:22;;;;;;;52.90;23.07;;;;;;;3.36;100.00;97283.41;4958743;28;20975;-39
2021/12/31 01:20:31;;;;;;;55.57;22.70;;;;;;;3.32;100.00;97296.06;4955176;29;20488;-39
2021/12/31 01:22:58;;;;;;;53.13;24.80;;;;;;;3.30;100.00;97286.72;4958603;28;20500;-38
2021/12/31 01:25:27;;;;;;;75.53;25.70;;;;;;;3.24;100.00;97275.94;4958614;28;20449;-37
2021/12/31 01:27:54;;;;;;;109.77;30.80;;;;;;;3.16;100.00;97272.56;4958748;28;20456;-39
2021/12/31 01:30:21;;;;;;;61.10;26.00;;;;;;;3.15;100.00;97282.25;4958478;28;20460;-38
2021/12/31 01:32:49;;;;;;;48.03;19.47;;;;;;;3.16;100.00;97283.91;4958438;28;20807;-39
2021/12/31 01:35:16;;;;;;;28.37;15.80;;;;;;;3.16;100.00;97276.03;4958648;28;20455;-39
2021/12/31 01:37:44;;;;;;;21.63;12.73;;;;;;;3.16;100.00;97278.66;4958640;28;20463;-37
2021/12/31 01:40:12;;;;;;;24.83;12.73;;;;;;;3.17;100.00;97289.97;4958691;28;20451;-38
2021/12/31 01:42:41;;;;;;;46.53;24.47;;;;;;;3.17;100.00;97306.50;4958225;28;20623;-36
2021/12/31 01:45:13;;;;;;;43.27;23.03;;;;;;;3.18;100.00;97300.25;4958223;28;20445;-39
2021/12/31 01:47:56;;;;;;;64.43;28.43;;;;;;;3.19;100.00;97311.59;4958950;28;20444;-38
2021/12/31 01:50:24;;;;;;;59.83;26.30;;;;;;;3.16;100.00;97312.75;4958087;28;20779;-36
2021/12/31 01:52:52;;;;;;;69.50;30.97;;;;;;;3.15;100.00;97310.31;4957815;28;20485;-36
2021/12/31 01:55:20;;;;;;;68.10;33.67;;;;;;;3.12;100.00;97314.09;4958056;28;20938;-38
2021/12/31 01:57:50;;;;;;;43.23;22.87;;;;;;;2.95;100.00;97291.63;4958037;28;20449;-36
2021/12/31 02:00:17;;;;;;;36.80;18.63;;;;;;;3.01;100.00;97315.34;4957247;28;20480;-38
2021/12/31 02:02:46;;;;;;;20.53;10.30;;;;;;;2.85;100.00;97312.81;4957760;28;20496;-38
2021/12/31 02:05:15;;;;;;;22.27;11.90;;;;;;;2.92;100.00;97305.06;4957852;28;20528;-37
2021/12/31 02:07:42;;;;;;;19.43;12.33;;;;;;;2.95;100.00;97296.88;4958042;28;20804;-39
2021/12/31 02:10:11;;;;;;;20.63;10.20;;;;;;;2.98;100.00;97302.56;4958004;28;20479;-37
2021/12/31 02:12:42;;;;;;;20.20;9.93;;;;;;;3.01;100.00;97306.63;4957744;28;20449;-38
2021/12/31 02:15:12;;;;;;;19.40;8.37;;;;;;;3.02;100.00;97308.28;4957697;28;20438;-38
2021/12/31 02:17:39;;;;;;;8.50;6.83;;;;;;;3.02;100.00;97303.03;4957669;28;20451;-38
2021/12/31 02:20:09;;;;;;;13.43;9.57;;;;;;;3.00;100.00;97305.81;4957846;28;20449;-39
2021/12/31 02:22:38;;;;;;;15.43;10.10;;;;;;;2.92;100.00;97318.19;4957537;28;20492;-37
2021/12/31 02:25:06;;;;;;;18.37;10.77;;;;;;;2.80;100.00;97308.09;4957435;28;20465;-38
2021/12/31 02:27:38;;;;;;;24.23;13.03;;;;;;;2.97;100.00;97334.19;4957432;28;20459;-38
2021/12/31 02:30:08;;;;;;;18.33;10.60;;;;;;;2.82;100.00;97319.22;4957416;28;20437;-38
2021/12/31 02:32:35;;;;;;;21.90;13.90;;;;;;;2.87;100.00;97337.88;4957661;28;20476;-38
2021/12/31 02:35:03;;;;;;;22.83;13.90;;;;;;;2.73;100.00;97341.25;4956551;28;20826;-39
2021/12/31 02:37:32;;;;;;;28.07;15.70;;;;;;;2.67;100.00;97340.13;4957552;28;20450;-39
2021/12/31 02:40:02;;;;;;;26.00;16.60;;;;;;;2.71;100.00;97345.88;4957256;28;20969;-38
2021/12/31 02:42:29;;;;;;;26.70;16.17;;;;;;;2.69;100.00;97353.09;4957330;28;20452;-38
2021/12/31 02:44:56;;;;;;;24.50;15.50;;;;;;;2.61;100.00;97363.59;4957069;28;20445;-39
2021/12/31 02:47:24;;;;;;;41.20;17.70;;;;;;;2.65;100.00;97349.16;4957457;28;20492;-38
2021/12/31 02:49:51;;;;;;;29.50;15.30;;;;;;;2.71;100.00;97358.13;4957335;28;20528;-37
2021/12/31 02:52:19;;;;;;;29.90;17.27;;;;;;;2.75;100.00;97349.75;4956815;28;20481;-38
2021/12/31 02:54:50;;;;;;;26.07;13.00;;;;;;;2.75;100.00;97355.00;4956916;28;20521;-38
2021/12/31 02:57:20;;;;;;;31.87;15.60;;;;;;;2.83;100.00;97362.81;4956933;28;20437;-38
2021/12/31 02:59:48;;;;;;;32.73;16.50;;;;;;;2.89;100.00;97365.75;4956851;28;20460;-39
2021/12/31 03:02:21;;;;;;;34.27;17.20;;;;;;;2.91;100.00;97355.91;4957064;28;20449;-38
2021/12/31 03:04:50;;;;;;;27.50;14.67;;;;;;;2.92;100.00;97354.91;4956735;28;20858;-38
2021/12/31 03:07:18;;;;;;;19.73;12.37;;;;;;;2.94;100.00;97358.16;4957012;28;20453;-38
2021/12/31 03:09:49;;;;;;;23.33;13.67;;;;;;;2.96;100.00;97366.69;4956289;28;20457;-37
2021/12/31 03:12:17;;;;;;;25.33;13.57;;;;;;;2.99;100.00;97363.69;4956616;28;20449;-39
2021/12/31 03:14:46;;;;;;;43.23;20.83;;;;;;;2.99;100.00;97353.19;4956637;28;20449;-40
2021/12/31 03:17:14;;;;;;;47.97;25.53;;;;;;;3.01;100.00;97364.34;4956528;28;20449;-38
2021/12/31 03:19:43;;;;;;;34.87;21.20;;;;;;;3.03;100.00;97364.97;4956794;28;20534;-38
2021/12/31 03:22:11;;;;;;;32.93;18.87;;;;;;;3.05;100.00;97368.25;4956416;28;20454;-39
2021/12/31 03:24:38;;;;;;;31.03;18.10;;;;;;;3.08;100.00;97378.41;4956298;28;20504;-38
2021/12/31 03:27:07;;;;;;;36.10;18.13;;;;;;;3.11;100.00;97385.94;4956330;28;20443;-37
2021/12/31 03:29:34;;;;;;;42.13;21.30;;;;;;;3.15;100.00;97381.97;4956494;28;20456;-38
2021/12/31 03:32:01;;;;;;;36.30;19.50;;;;;;;3.13;100.00;97373.44;4956245;28;20449;-39
2021/12/31 03:34:29;;;;;;;32.30;18.90;;;;;;;3.15;100.00;97375.91;4956124;28;20940;-38
2021/12/31 03:36:56;;;;;;;44.20;22.47;;;;;;;3.18;100.00;97370.28;4956168;28;20456;-38
2021/12/31 03:39:24;;;;;;;52.67;28.40;;;;;;;3.18;100.00;97380.78;4956076;28;20445;-38
2021/12/31 03:41:51;;;;;;;64.97;31.30;;;;;;;3.18;100.00;97386.03;4956345;28;20449;-39
2021/12/31 03:44:20;;;;;;;70.60;33.37;;;;;;;3.18;100.00;97401.78;4955906;28;20493;-38
2021/12/31 03:46:47;;;;;;;60.63;30.73;;;;;;;3.20;100.00;97394.56;4956241;28;20445;-39
2021/12/31 03:49:14;;;;;;;53.37;29.27;;;;;;;3.22;100.00;97393.38;4956215;28;20810;-38
2021/12/31 03:51:41;;;;;;;50.97;28.80;;;;;;;3.24;100.00;97391.41;4955580;28;20958;-39
2021/12/31 03:54:08;;;;;;;62.27;25.57;;;;;;;3.25;100.00;97400.94;4955917;28;20440;-38
2021/12/31 03:56:36;;;;;;;49.30;25.97;;;;;;;3.26;100.00;97409.59;4956077;28;20865;-39
2021/12/31 03:59:03;;;;;;;46.93;27.33;;;;;;;3.25;100.00;97403.56;4956796;28;20773;-37
2021/12/31 04:01:32;;;;;;;50.97;25.60;;;;;;;3.27;100.00;97404.19;4956866;28;20449;-38
2021/12/31 04:03:59;;;;;;;54.40;26.03;;;;;;;3.30;100.00;97402.22;4955603;28;20994;-39
2021/12/31 04:06:26;;;;;;;36.60;20.63;;;;;;;3.31;100.00;97381.03;4955723;28;20455;-39
2021/12/31 04:08:56;;;;;;;50.93;20.57;;;;;;;3.32;100.00;97381.84;4955845;28;20445;-38
2021/12/31 04:11:24;;;;;;;42.20;24.87;;;;;;;3.29;100.00;97388.25;4955655;28;20455;-38
2021/12/31 04:13:51;;;;;;;55.43;28.70;;;;;;;3.25;100.00;97395.69;4956402;28;20452;-38
2021/12/31 04:16:18;;;;;;;63.73;31.43;;;;;;;3.16;100.00;97404.59;4955814;28;20449;-39
2021/12/31 04:18:47;;;;;;;53.03;28.00;;;;;;;2.95;100.00;97407.03;4955853;28;20449;-37
2021/12/31 04:21:16;;;;;;;56.70;29.90;;;;;;;2.89;100.00;97418.22;4955073;28;20449;-37
2021/12/31 04:23:51;;;;;;;60.13;27.50;;;;;;;2.87;100.00;97395.56;4955135;28;20501;-38
2021/12/31 04:26:19;;;;;;;50.83;27.00;;;;;;;2.76;100.00;97397.78;4955417;28;20441;-37
2021/12/31 04:28:47;;;;;;;43.80;22.67;;;;;;;2.74;100.00;97400.56;4955743;28;20441;-38
2021/12/31 04:31:14;;;;;;;36.37;23.77;;;;;;;2.75;100.00;97407.44;4955391;28;20445;-37
2021/12/31 04:33:42;;;;;;;35.40;21.70;;;;;;;2.65;100.00;97412.09;4955372;28;20449;-38
2021/12/31 04:36:11;;;;;;;43.47;26.17;;;;;;;2.64;100.00;97407.81;4955076;28;20445;-37
2021/12/31 04:38:38;;;;;;;41.70;27.00;;;;;;;2.69;100.00;97413.41;4955384;28;20449;-38
2021/12/31 04:41:06;;;;;;;31.33;20.13;;;;;;;2.74;100.00;97416.31;4955401;28;20937;-38
2021/12/31 04:43:33;;;;;;;36.07;18.57;;;;;;;2.77;100.00;97408.09;4955071;28;20485;-37
2021/12/31 04:46:00;;;;;;;31.90;16.47;;;;;;;2.80;100.00;97420.88;4956322;28;20445;-38
2021/12/31 04:48:28;;;;;;;22.83;13.87;;;;;;;2.81;100.00;97425.13;4955197;28;21024;-37
2021/12/31 04:50:55;;;;;;;28.07;14.50;;;;;;;2.83;100.00;97409.22;4956100;28;20453;-39
2021/12/31 04:53:24;;;;;;;31.33;15.33;;;;;;;2.87;100.00;97410.50;4955119;28;20485;-39
2021/12/31 04:55:51;;;;;;;32.43;15.33;;;;;;;2.93;100.00;97409.00;4955129;28;20952;-38
2021/12/31 04:58:18;;;;;;;31.20;13.10;;;;;;;2.97;100.00;97386.66;4955113;28;20449;-37
2021/12/31 05:00:45;;;;;;;41.47;19.50;;;;;;;2.98;100.00;97391.75;4955450;28;20817;-38
2021/12/31 05:03:14;;;;;;;40.80;21.87;;;;;;;2.96;100.00;97392.91;4955263;28;20485;-38
2021/12/31 05:05:41;;;;;;;67.50;27.73;;;;;;;2.94;100.00;97389.66;4955387;28;20449;-37
2021/12/31 05:08:09;;;;;;;49.63;27.00;;;;;;;2.92;100.00;97387.19;4955279;28;20453;-36
2021/12/31 05:10:37;;;;;;;48.47;26.20;;;;;;;2.89;100.00;97382.31;4955576;28;20449;-38
2021/12/31 05:13:06;;;;;;;52.03;27.30;;;;;;;2.89;100.00;97377.06;4954923;28;20449;-38
2021/12/31 05:15:37;;;;;;;77.00;39.77;;;;;;;2.75;100.00;97362.84;4954967;28;20445;-37
2021/12/31 05:18:04;;;;;;;63.93;30.53;;;;;;;2.91;100.00;97387.38;4954910;28;20926;-37
2021/12/31 05:20:32;;;;;;;51.20;25.43;;;;;;;2.94;100.00;97392.25;4954976;28;20445;-37
2021/12/31 05:23:00;;;;;;;48.77;23.30;;;;;;;2.95;100.00;97396.53;4955236;28;20449;-38
2021/12/31 05:25:28;;;;;;;41.87;25.30;;;;;;;2.95;100.00;97380.81;4955314;28;20496;-38
2021/12/31 05:27:56;;;;;;;57.27;27.70;;;;;;;2.95;100.00;97370.31;4955179;28;20449;-39
2021/12/31 05:30:25;;;;;;;54.37;29.90;;;;;;;2.94;100.00;97373.91;4971723;28;20454;-38
2021/12/31 05:32:52;;;;;;;42.60;22.33;;;;;;;2.93;100.00;97365.22;4974522;28;20499;-38
2021/12/31 05:35:20;;;;;;;52.07;18.90;;;;;;;2.95;100.00;97381.63;4977889;28;20452;-38
2021/12/31 05:37:47;;;;;;;34.70;17.07;;;;;;;2.99;100.00;97384.69;4977258;28;20448;-38
2021/12/31 05:40:14;;;;;;;42.20;18.17;;;;;;;3.00;100.00;97374.03;4977927;28;20451;-39
2021/12/31 05:42:42;;;;;;;37.27;20.17;;;;;;;3.00;100.00;97379.28;4977775;28;20445;-37
2021/12/31 05:45:11;;;;;;;53.73;27.53;;;;;;;3.02;100.00;97392.22;4959383;28;20493;-39
2021/12/31 05:47:39;;;;;;;67.30;31.40;;;;;;;3.02;100.00;97381.72;4957440;28;20442;-37
2021/12/31 05:50:10;;;;;;;87.73;43.10;;;;;;;3.00;100.00;97379.28;4957187;28;20441;-38
2021/12/31 05:52:37;;;;;;;102.20;47.20;;;;;;;3.03;100.00;97378.09;4956860;28;20560;-38
2021/12/31 05:55:06;;;;;;;65.40;31.73;;;;;;;3.02;100.00;97371.25;4955804;28;20449;-37
2021/12/31 05:57:33;;;;;;;66.43;29.13;;;;;;;3.03;100.00;97378.09;4957166;28;20524;-36
2021/12/31 06:00:00;;;;;;;67.37;30.47;;;;;;;3.05;100.00;97376.97;4957576;28;20458;-35
2021/12/31 06:02:29;;;;;;;57.63;27.70;;;;;;;3.07;100.00;97374.13;4956893;28;20458;-37
2021/12/31 06:04:56;;;;;;;59.20;30.33;;;;;;;3.09;100.00;97372.16;4957048;28;20501;-38
2021/12/31 06:07:23;;;;;;;77.63;37.27;;;;;;;3.12;100.00;97382.31;4968881;28;20448;-38
2021/12/31 06:09:50;;;;;;;57.90;31.40;;;;;;;3.13;100.00;97389.19;4976743;28;20449;-38
2021/12/31 06:12:17;;;;;;;62.93;33.33;;;;;;;3.16;100.00;97388.84;4976013;28;20455;-38
2021/12/31 06:14:44;;;;;;;83.00;38.20;;;;;;;3.19;100.00;97401.63;4976669;28;20449;-38
2021/12/31 06:17:12;;;;;;;140.83;70.73;;;;;;;3.21;100.00;97396.22;4976388;28;20541;-38
2021/12/31 06:19:41;;;;;;;126.73;60.03;;;;;;;3.23;100.00;97405.53;4976612;28;20471;-38
2021/12/31 06:22:08;;;;;;;116.37;53.87;;;;;;;3.23;100.00;97408.16;4975707;28;20879;-40
2021/12/31 06:24:35;;;;;;;118.00;58.60;;;;;;;3.24;99.21;97411.59;4976523;28;20496;-36
2021/12/31 06:27:03;;;;;;;105.70;59.10;;;;;;;3.16;99.46;97415.09;4974308;28;20944;-37
2021/12/31 06:29:32;;;;;;;92.13;51.77;;;;;;;3.16;99.75;97420.34;4975107;28;20444;-36
2021/12/31 06:32:00;;;;;;;94.20;41.97;;;;;;;3.19;100.00;97425.25;4975578;28;20857;-33
2021/12/31 06:34:27;;;;;;;108.10;52.67;;;;;;;3.24;100.00;97433.41;4975262;28;20936;-35
2021/12/31 06:36:55;;;;;;;112.23;49.80;;;;;;;3.31;100.00;97432.69;4974043;28;20491;-38
2021/12/31 06:39:25;;;;;;;53.20;32.53;;;;;;;3.42;100.00;97434.91;4975386;28;20499;-38
2021/12/31 06:41:52;;;;;;;61.00;34.80;;;;;;;3.58;100.00;97434.00;4976526;28;20539;-37
2021/12/31 06:44:19;;;;;;;63.87;39.33;;;;;;;3.73;100.00;97426.16;4976202;28;20484;-38
2021/12/31 06:46:47;;;;;;;73.23;39.10;;;;;;;3.96;100.00;97429.56;4976422;28;20456;-38
2021/12/31 06:49:14;;;;;;;54.83;38.03;;;;;;;4.18;100.00;97434.94;4976333;28;20493;-39
2021/12/31 06:51:41;;;;;;;71.27;43.33;;;;;;;4.38;100.00;97438.66;4976064;28;20844;-38
2021/12/31 06:54:10;;;;;;;76.70;44.40;;;;;;;4.68;100.00;97438.66;4975980;28;20447;-37
2021/12/31 06:56:37;;;;;;;72.10;40.57;;;;;;;4.96;100.00;97437.97;4974497;28;20452;-37
2021/12/31 06:59:04;;;;;;;63.63;36.03;;;;;;;5.25;100.00;97439.72;4974823;28;20449;-37
2021/12/31 07:01:31;;;;;;;68.50;39.30;;;;;;;5.49;100.00;97443.81;4975905;28;20448;-38
2021/12/31 07:03:59;;;;;;;69.67;39.97;;;;;;;5.66;100.00;97445.19;4972639;28;20484;-36
2021/12/31 07:06:35;;;;;;;54.37;30.80;;;;;;;5.76;99.25;97444.84;4975624;28;20440;-35
2021/12/31 07:09:02;;;;;;;36.90;23.10;;;;;;;5.81;99.17;97452.19;4974754;28;20448;-35
2021/12/31 07:11:32;;;;;;;34.33;19.97;;;;;;;5.85;99.45;97448.19;4975479;28;20487;-36
2021/12/31 07:13:59;;;;;;;37.00;20.17;;;;;;;5.90;99.34;97443.16;4972149;28;20452;-38
2021/12/31 07:16:27;;;;;;;20.17;11.30;;;;;;;5.98;99.58;97436.97;4976313;28;20444;-37
2021/12/31 07:18:54;;;;;;;20.33;13.43;;;;;;;6.11;99.06;97448.44;4976171;28;20543;-37
2021/12/31 07:21:21;;;;;;;35.93;21.90;;;;;;;6.39;98.46;97454.69;4976960;28;20448;-37
2021/12/31 07:23:48;;;;;;;29.77;16.60;;;;;;;6.63;97.27;97445.50;4975745;28;20811;-36
2021/12/31 07:26:15;;;;;;;46.60;24.93;;;;;;;6.86;96.12;97451.31;4975955;28;20444;-35
2021/12/31 07:28:44;;;;;;;49.57;25.47;;;;;;;7.15;95.04;97444.09;4975964;28;20447;-38
2021/12/31 07:31:14;;;;;;;61.67;33.00;;;;;;;7.37;94.25;97447.41;4975871;28;20460;-37
2021/12/31 07:33:41;;;;;;;79.70;40.00;;;;;;;7.54;92.06;97453.13;4975548;28;20445;-36
2021/12/31 07:36:09;;;;;;;138.40;63.13;;;;;;;7.65;91.78;97444.59;4975519;28;20448;-35
2021/12/31 07:38:47;;;;;;;90.97;42.40;;;;;;;7.81;90.93;97446.06;4975629;28;20905;-37
2021/12/31 07:41:15;;;;;;;59.53;32.10;;;;;;;7.88;90.71;97443.44;4975274;28;20487;-37
2021/12/31 07:43:42;;;;;;;59.70;31.43;;;;;;;7.86;90.39;97445.44;4974928;28;20448;-36
2021/12/31 07:46:12;;;;;;;32.43;16.87;;;;;;;7.85;90.44;97455.22;4974742;28;20863;-37
2021/12/31 07:48:39;;;;;;;15.33;10.00;;;;;;;7.87;90.78;97455.00;4975291;28;20428;-35
2021/12/31 07:51:07;;;;;;;20.87;10.93;;;;;;;7.95;90.52;97449.50;4975880;28;20440;-36
2021/12/31 07:53:34;;;;;;;69.33;38.00;;;;;;;8.10;90.91;97452.75;4975006;28;20480;-36
2021/12/31 07:56:01;;;;;;;117.03;58.30;;;;;;;8.28;89.91;97448.69;4975226;28;20456;-36
2021/12/31 07:58:28;;;;;;;82.90;43.10;;;;;;;8.43;88.87;97441.34;4975166;28;20452;-36
2021/12/31 08:00:55;;;;;;;90.37;47.03;;;;;;;8.52;88.81;97429.53;4975018;28;20475;-37
2021/12/31 08:03:24;;;;;;;60.13;33.60;;;;;;;8.52;87.26;97440.13;4970237;28;20465;-36
2021/12/31 08:05:53;;;;;;;57.67;33.17;;;;;;;8.56;87.17;97430.75;4968554;28;20980;-37
2021/12/31 08:08:21;;;;;;;60.13;32.60;;;;;;;8.56;86.68;97436.06;4967167;28;20458;-37
2021/12/31 08:10:49;;;;;;;113.10;49.17;;;;;;;8.50;86.51;97428.13;4972431;28;20476;-36
2021/12/31 08:13:16;;;;;;;102.90;49.13;;;;;;;8.44;85.94;97432.41;4971483;28;20472;-35
2021/12/31 08:15:43;;;;;;;58.00;31.40;;;;;;;8.44;85.84;97426.31;4964764;28;20495;-36
2021/12/31 08:18:10;;;;;;;39.90;24.90;;;;;;;8.38;86.10;97423.44;4960807;28;21000;-36
2021/12/31 08:20:39;;;;;;;39.60;22.97;;;;;;;8.38;85.97;97417.31;4955222;28;20468;-35
2021/12/31 08:23:09;;;;;;;33.10;19.43;;;;;;;8.49;85.39;97418.56;4954796;28;20464;-33
2021/12/31 08:25:36;;;;;;;62.80;28.83;;;;;;;8.60;84.76;97410.81;4958437;28;20625;-35
2021/12/31 08:28:04;;;;;;;44.67;21.30;;;;;;;8.77;84.55;97407.66;4974323;28;20495;-34
2021/12/31 08:30:31;;;;;;;25.53;14.00;;;;;;;8.91;83.78;97401.31;4974904;28;20813;-34
2021/12/31 08:32:59;;;;;;;112.03;48.93;;;;;;;9.01;83.60;97409.63;4974937;28;20452;-34
2021/12/31 08:35:26;;;;;;;396.60;167.20;;;;;;;9.11;82.13;97400.41;4974813;28;20448;-34
2021/12/31 08:37:54;;;;;;;72.30;43.33;;;;;;;9.13;82.05;97408.94;4974222;28;20459;-33
2021/12/31 08:40:22;;;;;;;41.47;24.87;;;;;;;9.14;81.46;97410.56;4974788;28;20444;-35
2021/12/31 08:42:49;;;;;;;258.00;132.70;;;;;;;9.21;80.09;97395.47;4974255;28;20463;-35
2021/12/31 08:45:16;;;;;;;83.20;45.40;;;;;;;9.27;80.71;97388.47;4972938;28;20502;-35
2021/12/31 08:47:43;;;;;;;59.40;32.43;;;;;;;9.35;80.51;97383.75;4973940;28;20854;-34
2021/12/31 08:50:11;;;;;;;89.77;47.40;;;;;;;9.37;80.53;97379.03;4973908;28;20440;-31
2021/12/31 08:52:38;;;;;;;103.20;51.83;;;;;;;9.38;79.68;97380.69;4973657;28;20894;-35
2021/12/31 08:55:09;;;;;;;66.57;32.60;;;;;;;9.48;79.69;97376.72;4973512;28;20445;-35
2021/12/31 08:57:36;;;;;;;63.83;31.83;;;;;;;9.48;79.20;97368.78;4973684;28;20937;-34
2021/12/31 09:00:05;;;;;;;86.87;42.93;;;;;;;9.64;79.68;97362.97;4974070;28;20451;-34
2021/12/31 09:02:32;;;;;;;29.43;16.60;;;;;;;9.75;79.06;97364.09;4973566;28;20444;-34
2021/12/31 09:04:59;;;;;;;107.63;52.03;;;;;;;9.80;79.82;97354.44;4973854;28;21051;-33
2021/12/31 09:07:27;;;;;;;86.13;43.13;;;;;;;9.90;80.50;97366.41;4974297;28;20879;-33
2021/12/31 09:09:54;;;;;;;68.50;34.67;;;;;;;9.96;80.78;97349.59;4977791;28;20460;-34
2021/12/31 09:12:22;;;;;;;61.47;32.03;;;;;;;9.98;80.25;97363.47;4977569;28;20455;-36
2021/12/31 09:14:49;;;;;;;80.30;42.93;;;;;;;9.93;79.71;97365.97;4977679;28;20444;-34
2021/12/31 09:17:17;;;;;;;36.40;20.53;;;;;;;9.92;79.44;97353.75;4978033;28;20443;-34
2021/12/31 09:19:44;;;;;;;36.83;18.40;;;;;;;9.96;79.69;97349.59;4978293;28;20804;-35
2021/12/31 09:22:11;;;;;;;25.80;16.33;;;;;;;9.98;79.02;97343.06;4977882;28;20463;-34
2021/12/31 09:24:39;;;;;;;62.33;24.90;;;;;;;10.00;78.89;97334.88;4977804;28;20448;-34
2021/12/31 09:27:06;;;;;;;96.10;42.77;;;;;;;9.95;78.39;97340.03;4978088;28;20965;-34
2021/12/31 09:29:35;;;;;;;61.33;27.53;;;;;;;9.96;80.15;97333.69;4977729;28;20455;-34
2021/12/31 10:42:18;;;;;;;66.07;40.67;;;;;;;11.17;74.70;97296.72;4835839;29;20483;-36
2021/12/31 10:44:48;;;;;;;65.73;37.80;;;;;;;11.13;76.21;97291.03;4796200;29;1614145;-38
2021/12/31 10:47:17;;;;;;;31.90;24.10;;;;;;;11.02;74.82;97267.91;4967959;28;20202;-37
2021/12/31 10:50:11;;;;;;;20.70;10.17;;;;;;;11.17;74.50;97286.09;5053738;28;20438;-37
2021/12/31 10:52:43;;;;;;;37.23;13.60;;;;;;;11.04;76.10;97261.34;5111186;28;20456;-36
2021/12/31 10:55:21;;;;;;;20.77;12.47;;;;;;;11.16;75.92;97284.47;5110663;28;20439;-36
2021/12/31 10:57:50;;;;;;;13.63;6.67;;;;;;;11.20;74.07;97275.00;5101124;28;20931;-37
2021/12/31 11:00:20;;;;;;;49.10;18.67;;;;;;;11.27;76.06;97270.38;5090674;28;20802;-35
2021/12/31 11:02:49;;;;;;;26.47;14.93;;;;;;;11.38;74.81;97266.94;5090666;28;20438;-36
2021/12/31 11:05:17;;;;;;;28.53;14.30;;;;;;;11.44;73.97;97263.38;5090254;28;20501;-36
2021/12/31 11:07:46;;;;;;;43.63;24.80;;;;;;;11.50;74.00;97274.13;5089761;28;20451;-37
2021/12/31 11:10:14;;;;;;;127.10;68.37;;;;;;;11.48;74.20;97269.81;5090250;28;20438;-36
2021/12/31 11:12:46;;;;;;;289.30;163.17;;;;;;;11.48;72.92;97267.16;5090206;28;20457;-37
2021/12/31 11:15:16;;;;;;;178.87;96.57;;;;;;;11.50;72.12;97258.16;5090470;28;20449;-37
2021/12/31 11:17:45;;;;;;;121.37;61.83;;;;;;;11.55;72.96;97245.81;5090703;28;20462;-38
2021/12/31 11:20:20;;;;;;;22.53;15.47;;;;;;;11.66;72.97;97241.53;5089543;28;20452;-39
2021/12/31 11:22:51;;;;;;;26.90;14.80;;;;;;;11.63;73.51;97239.31;5090215;28;20518;-37
2021/12/31 11:25:25;;;;;;;46.63;27.03;;;;;;;11.69;73.35;97235.72;5089717;28;20490;-36
2021/12/31 11:27:53;;;;;;;70.27;39.10;;;;;;;11.65;73.16;97234.56;5089952;28;20806;-35
2021/12/31 11:30:34;;;;;;;63.57;37.47;;;;;;;11.64;72.92;97230.31;5089855;28;20439;-36
2021/12/31 11:33:06;;;;;;;54.40;27.03;;;;;;;11.66;73.59;97228.22;5089837;28;20431;-37
2021/12/31 11:35:43;;;;;;;90.83;48.77;;;;;;;11.57;71.99;97217.13;5091109;28;20928;-36
2021/12/31 11:38:15;;;;;;;50.17;26.07;;;;;;;11.62;73.24;97232.41;5110034;28;20423;-36
2021/12/31 11:40:49;;;;;;;63.97;35.63;;;;;;;11.55;74.32;97213.06;5109827;28;20434;-34
2021/12/31 11:43:25;;;;;;;70.27;34.20;;;;;;;11.77;74.06;97235.38;5109699;28;20478;-34
2021/12/31 11:46:25;;;;;;;55.83;28.07;;;;;;;11.78;72.34;97229.00;5101708;28;20430;-34
2021/12/31 11:48:56;;;;;;;33.57;19.07;;;;;;;11.82;73.69;97218.72;5089395;28;20470;-36
2021/12/31 11:51:26;;;;;;;47.10;26.30;;;;;;;11.83;73.50;97207.84;5096326;28;20443;-39
2021/12/31 11:54:20;;;;;;;41.87;22.97;;;;;;;12.00;73.40;97225.75;5092477;28;20806;-37
2021/12/31 11:57:08;;;;;;;19.00;13.07;;;;;;;11.96;73.62;97235.25;5074726;28;20873;-36
2021/12/31 11:59:38;;;;;;;102.93;48.47;;;;;;;11.82;73.57;97208.88;5094568;28;20443;-34
2021/12/31 12:02:15;;;;;;;136.00;58.90;;;;;;;11.97;73.11;97243.00;5096216;28;20908;-34
2021/12/31 12:04:47;;;;;;;11.80;8.13;;;;;;;11.73;71.74;97214.81;5096317;28;20501;-36
2021/12/31 12:07:33;;;;;;;58.67;29.77;;;;;;;11.83;72.87;97236.28;5096323;28;20419;-36
2021/12/31 12:10:21;;;;;;;74.73;31.60;;;;;;;11.86;74.24;97246.47;5096189;28;20902;-36
2021/12/31 12:12:51;;;;;;;44.57;20.40;;;;;;;11.91;70.92;97246.59;5095895;28;20438;-37
2021/12/31 12:15:30;;;;;;;87.83;29.10;;;;;;;11.88;73.88;97245.22;5096041;28;20446;-36
2021/12/31 12:17:59;;;;;;;87.77;40.83;;;;;;;11.97;72.90;97236.88;5095705;28;20956;-36
2021/12/31 12:20:42;;;;;;;43.97;21.00;;;;;;;12.04;73.11;97250.88;5095962;28;20461;-37
2021/12/31 12:23:21;;;;;;;50.90;23.50;;;;;;;11.99;73.54;97224.16;5095962;28;20423;-36
2021/12/31 12:25:49;;;;;;;80.07;34.40;;;;;;;12.05;72.71;97236.53;5096389;28;20478;-36
2021/12/31 12:28:17;;;;;;;151.30;61.57;;;;;;;12.04;72.84;97235.69;5095777;28;20462;-36
2021/12/31 12:30:52;;;;;;;24.03;11.57;;;;;;;12.04;73.84;97227.72;5095783;28;20795;-36
2021/12/31 12:33:24;;;;;;;46.83;22.70;;;;;;;12.08;73.52;97238.72;5095801;28;20771;-36
2021/12/31 12:35:54;;;;;;;13.13;7.77;;;;;;;12.00;74.08;97237.25;5094947;28;20475;-36
2021/12/31 12:38:24;;;;;;;26.57;16.67;;;;;;;11.77;74.65;97231.91;5095266;28;20447;-36
2021/12/31 12:40:54;;;;;;;22.93;15.57;;;;;;;11.73;74.46;97239.56;5094719;28;20531;-36